NCAR-RAP Real-Time Weather Data

Output produced by METARs form (10 April 2020  07:29 UTC)
found at http://weather.rap.ucar.edu/surface/
 
KICT 100653Z 05015KT 10SM FEW220 06/M08 A3021 RMK AO2 SLP229 T00611078 $
KICT 100553Z 04014KT 10SM FEW220 07/M09 A3019 RMK AO2 SLP222 T00721089 10161 20072 401830072 51023 $
KICT 100453Z 03015KT 10SM FEW220 09/M10 A3017 RMK AO2 SLP215 T00891100 $
KICT 100353Z 03018G25KT 10SM FEW220 11/M09 A3015 RMK AO2 SLP209 T01061089 $
KICT 100253Z 01011G15KT 10SM FEW180 SCT220 12/M04 A3012 RMK AO2 SLP197 T01221039 53020 $
KICT 100153Z 01009KT 10SM FEW090 FEW150 SCT180 SCT220 13/M04 A3009 RMK AO2 SLP188 T01331044 $
KICT 100053Z 36011KT 10SM FEW090 FEW150 SCT180 BKN220 15/M05 A3006 RMK AO2 SLP179 T01501050
KICT 092353Z 36010KT 10SM FEW120 SCT150 BKN180 BKN220 16/M04 A3006 RMK AO2 SLP177 T01611039 10183 20150 55006
KICT 092253Z 35014G19KT 10SM FEW120 SCT150 BKN180 BKN220 18/M04 A3005 RMK AO2 SLP173 T01781039
KICT 092153Z 36015KT 10SM FEW120 SCT150 BKN180 BKN220 18/M03 A3006 RMK AO2 SLP175 T01781033
KICT 092053Z 34012G22KT 10SM FEW120 SCT150 BKN180 BKN220 17/M03 A3008 RMK AO2 SLP181 T01721028 58022
KICT 091953Z 36013G22KT 10SM SCT100 BKN250 17/M04 A3011 RMK AO2 SLP193 T01671039
KICT 091853Z 36012G18KT 10SM FEW100 BKN250 17/M03 A3013 RMK AO2 SLP199 T01671028
KICT 091753Z VRB06KT 10SM BKN100 BKN250 15/M03 A3014 RMK AO2 SLP204 T01501028 10156 20083 50001
KICT 091653Z 02008KT 10SM BKN100 BKN250 15/M01 A3016 RMK AO2 SLP207 T01501011
KICT 091553Z 04008KT 10SM SCT100 BKN250 14/M01 A3015 RMK AO2 SLP204 T01391006
KICT 091453Z 03008KT 10SM FEW070 SCT180 BKN250 12/M01 A3014 RMK AO2 SLP202 T01221006 53018
KICT 091353Z 02010KT 10SM SCT070 BKN180 11/01 A3012 RMK AO2 SLP193 T01060006
KICT 091253Z 36006KT 10SM FEW070 SCT150 BKN250 09/00 A3011 RMK AO2 SLP188 T00940000
KICT 091153Z 03005KT 10SM SCT250 08/M01 A3008 RMK AO2 SLP181 T00831011 10133 20083 51020
KICT 091053Z 05007KT 10SM SCT250 09/M01 A3007 RMK AO2 SLP174 T00891011 $
KICT 090953Z 05015KT 10SM SCT250 10/M01 A3005 RMK AO2 SLP165 T01001011 $
KICT 090853Z 06019KT 10SM SCT250 11/M01 A3002 RMK AO2 PK WND 04027/0820 SLP157 T01111011 53001 $